Time;durP1;ratioP1;P1;durP2;ratioP2;P2;SDS_P1;SDS_P2;PMS_P1;PMS_P2;Temp;Humidity;BMP_temperature;BMP_pressure;BME280_temperature;BME280_humidity;BME280_pressure;Samples;Min_cycle;Max_cycle;Signal;HPM_P1;HPM_P2
2023/02/24 00:02:05;;;;;;;85.00;39.10;;;;;;;7.71;64.68;98429.82;235750;1192;139121;-65
2023/02/24 00:08:00;;;;;;;93.10;39.80;;;;;;;7.72;64.84;98418.30;235555;1193;139016;-64
2023/02/24 00:13:45;;;;;;;;;;;;;;;;;;;;;
2023/02/24 00:19:25;;;;;;;80.70;41.60;;;;;;;7.85;64.48;98405.02;235760;1193;138637;-63
2023/02/24 00:25:03;;;;;;;75.10;39.60;;;;;;;7.79;64.52;98402.92;235493;1193;139103;-64
2023/02/24 00:30:37;;;;;;;80.00;42.70;;;;;;;7.75;64.48;98402.43;235586;1194;138808;-65
2023/02/24 00:36:44;;;;;;;;;;;;;;;;;;;;;
2023/02/24 00:42:27;;;;;;;76.40;40.20;;;;;;;7.68;64.76;98386.61;235312;1193;138812;-66
2023/02/24 00:48:54;;;;;;;79.20;40.20;;;;;;;7.61;64.75;98374.69;235310;1193;139247;-66
2023/02/24 00:55:25;;;;;;;;;;;;;;;;;;;;;
2023/02/24 01:02:09;;;;;;;;;;;;;;;;;;;;;
2023/02/24 01:08:20;;;;;;;87.00;41.10;;;;;;;7.47;65.31;98354.70;235563;1193;139253;-66
2023/02/24 01:14:26;;;;;;;85.60;40.50;;;;;;;7.43;65.51;98345.77;235454;1193;139079;-66
2023/02/24 01:19:33;;;;;;;79.30;39.70;;;;;;;7.40;65.44;98340.85;235156;1197;138710;-67
2023/02/24 01:25:31;;;;;;;;;;;;;;;;;;;;;
2023/02/24 01:37:29;;;;;;;;;;;;;;;;;;;;;
2023/02/24 01:43:13;;;;;;;;;;;;;;;;;;;;;
2023/02/24 01:48:40;;;;;;;78.50;41.70;;;;;;;7.62;65.32;98316.72;235468;1193;138862;-63
2023/02/24 02:01:19;;;;;;;79.40;43.20;;;;;;;7.62;65.46;98305.92;235711;1193;138156;-67
2023/02/24 02:07:56;;;;;;;84.60;43.00;;;;;;;7.63;65.38;98300.44;235775;1193;138272;-65
2023/02/24 02:13:34;;;;;;;;;;;;;;;;;;;;;
2023/02/24 02:19:54;;;;;;;79.40;44.80;;;;;;;7.55;65.56;98295.04;235680;1193;138505;-63
2023/02/24 02:26:12;;;;;;;81.30;44.60;;;;;;;7.60;65.47;98286.80;235042;1194;139523;-64
2023/02/24 02:33:05;;;;;;;81.20;44.70;;;;;;;7.58;65.46;98278.45;235536;1195;138537;-63
2023/02/24 02:38:26;;;;;;;;;;;;;;;;;;;;;
2023/02/24 02:44:44;;;;;;;79.20;42.60;;;;;;;7.64;66.04;98272.64;235368;1193;139512;-64
2023/02/24 02:50:25;;;;;;;73.60;40.30;;;;;;;7.73;65.77;98262.23;235781;1193;139013;-66
2023/02/24 03:03:05;;;;;;;81.40;42.20;;;;;;;7.88;65.53;98251.91;231430;1209;641552;-68
2023/02/24 03:08:43;;;;;;;85.60;41.60;;;;;;;7.82;65.84;98248.36;234821;1200;138407;-67
2023/02/24 03:13:54;;;;;;;76.20;40.40;;;;;;;7.77;65.75;98246.88;235486;1194;138219;-67
2023/02/24 03:19:45;;;;;;;82.40;41.20;;;;;;;7.78;65.80;98247.92;235410;1193;138503;-67
2023/02/24 03:25:45;;;;;;;74.10;40.70;;;;;;;7.73;65.90;98240.98;235658;1193;138186;-67
2023/02/24 03:31:35;;;;;;;71.40;40.10;;;;;;;7.72;65.90;98237.52;235833;1191;139458;-69
2023/02/24 03:37:37;;;;;;;76.10;40.50;;;;;;;7.72;65.79;98229.23;235688;1192;138745;-66
2023/02/24 03:49:04;;;;;;;65.70;35.20;;;;;;;7.93;65.84;98214.45;235394;1193;138825;-66
2023/02/24 03:55:15;;;;;;;161.80;99.30;;;;;;;8.12;65.81;98207.19;235601;1192;138124;-64
2023/02/24 04:00:59;;;;;;;80.10;49.90;;;;;;;8.43;65.41;98203.64;235303;1193;140087;-69
2023/02/24 04:07:04;;;;;;;;;;;;;;;;;;;;;
2023/02/24 04:13:02;;;;;;;;;;;;;;;;;;;;;
2023/02/24 04:25:16;;;;;;;;;;;;;;;;;;;;;
2023/02/24 04:31:42;;;;;;;26.10;16.80;;;;;;;9.39;65.05;98154.94;235429;1196;139127;-63
2023/02/24 04:37:43;;;;;;;;;;;;;;;;;;;;;
2023/02/24 04:43:17;;;;;;;;;;;;;;;;;;;;;
2023/02/24 04:50:11;;;;;;;22.40;14.00;;;;;;;9.34;66.55;98141.44;235268;1195;140952;-66
2023/02/24 04:56:07;;;;;;;17.50;12.70;;;;;;;9.38;66.80;98134.25;235348;1195;138526;-67
2023/02/24 05:01:44;;;;;;;;;;;;;;;;;;;;;
2023/02/24 05:07:45;;;;;;;;;;;;;;;;;;;;;
2023/02/24 05:14:26;;;;;;;131.10;87.00;;;;;;;9.63;67.20;98114.33;235356;1195;138438;-65
2023/02/24 05:25:43;;;;;;;16.20;10.60;;;;;;;9.57;67.59;98102.92;235348;1195;138442;-63
2023/02/24 05:31:28;;;;;;;;;;;;;;;;;;;;;
2023/02/24 05:37:16;;;;;;;16.40;10.80;;;;;;;9.50;68.09;98097.13;235424;1193;138937;-65
2023/02/24 05:42:56;;;;;;;15.20;9.40;;;;;;;9.49;68.00;98095.02;235537;1193;138783;-64
2023/02/24 05:48:21;;;;;;;;;;;;;;;;;;;;;
2023/02/24 05:54:22;;;;;;;13.10;8.50;;;;;;;9.46;68.53;98087.79;235134;1196;139806;-67
2023/02/24 06:00:47;;;;;;;12.50;9.30;;;;;;;9.51;68.89;98083.70;235189;1193;139660;-70
2023/02/24 06:12:32;;;;;;;16.80;10.60;;;;;;;9.60;68.54;98075.10;235222;1193;139113;-67
2023/02/24 06:18:10;;;;;;;17.20;10.40;;;;;;;9.62;68.34;98068.95;235329;1193;139388;-68
2023/02/24 06:24:28;;;;;;;17.20;11.30;;;;;;;9.70;68.75;98060.92;235462;1195;139296;-66
2023/02/24 06:30:06;;;;;;;;;;;;;;;;;;;;;
2023/02/24 06:35:45;;;;;;;19.90;12.30;;;;;;;9.60;68.59;98054.86;235416;1193;139496;-68
2023/02/24 06:42:19;;;;;;;18.00;10.40;;;;;;;9.56;68.79;98049.51;235171;1193;138712;-66
2023/02/24 06:47:27;;;;;;;15.50;10.60;;;;;;;9.62;68.78;98043.27;235195;1193;139914;-69
2023/02/24 06:52:44;;;;;;;17.20;10.80;;;;;;;9.72;68.69;98040.19;235305;1196;138867;-65
2023/02/24 06:57:56;;;;;;;20.80;11.10;;;;;;;9.82;68.59;98037.13;235299;1194;138876;-70
2023/02/24 07:03:24;;;;;;;18.50;11.00;;;;;;;9.89;68.55;98032.70;235380;1193;139190;-71
2023/02/24 07:09:20;;;;;;;17.60;11.10;;;;;;;9.91;68.17;98030.93;235366;1195;139140;-70
2023/02/24 07:15:12;;;;;;;19.00;10.10;;;;;;;9.97;68.25;98028.39;235230;1194;139191;-70
2023/02/24 07:20:50;;;;;;;27.40;14.90;;;;;;;9.98;68.19;98022.68;235392;1193;138779;-68
2023/02/24 07:26:29;;;;;;;;;;;;;;;;;;;;;
2023/02/24 07:32:08;;;;;;;15.20;10.50;;;;;;;9.99;68.02;98015.37;235344;1193;139326;-65
2023/02/24 07:38:35;;;;;;;18.30;9.90;;;;;;;10.00;67.94;98003.58;235358;1193;139127;-65
2023/02/24 07:44:05;;;;;;;15.50;9.60;;;;;;;10.06;68.05;97998.69;235223;1193;140126;-64
2023/02/24 07:50:23;;;;;;;;;;;;;;;;;;;;;
2023/02/24 07:55:45;;;;;;;16.70;9.80;;;;;;;10.35;67.13;97984.02;235307;1193;139302;-63
2023/02/24 08:01:07;;;;;;;14.20;10.60;;;;;;;10.42;66.70;97979.96;235285;1193;138721;-68
2023/02/24 08:07:22;;;;;;;13.50;9.80;;;;;;;10.45;66.17;97976.02;235332;1195;139069;-64
2023/02/24 08:13:43;;;;;;;19.00;11.00;;;;;;;10.46;65.39;97973.77;235315;1195;139167;-64
2023/02/24 08:19:41;;;;;;;;;;;;;;;;;;;;;
2023/02/24 08:25:46;;;;;;;14.70;10.60;;;;;;;10.46;65.32;97964.73;235379;1193;139061;-64
2023/02/24 08:32:01;;;;;;;14.50;9.50;;;;;;;10.49;65.52;97952.58;235308;1195;139010;-63
2023/02/24 08:37:46;;;;;;;16.30;11.00;;;;;;;10.54;65.43;97947.41;235411;1193;139074;-65
2023/02/24 08:50:05;;;;;;;13.70;8.90;;;;;;;10.58;64.87;97937.36;235347;1195;139323;-66
2023/02/24 08:56:18;;;;;;;15.80;9.60;;;;;;;10.69;64.69;97931.90;235361;1193;139273;-65
2023/02/24 09:02:39;;;;;;;13.20;9.00;;;;;;;10.87;64.32;97930.27;235358;1195;139589;-65
2023/02/24 09:08:07;;;;;;;;;;;;;;;;;;;;;
2023/02/24 09:26:16;;;;;;;8.80;6.90;;;;;;;11.02;62.28;97907.16;235520;1193;138393;-66
2023/02/24 09:32:13;;;;;;;11.20;6.80;;;;;;;10.99;62.07;97899.98;235434;1193;138666;-66
2023/02/24 09:37:58;;;;;;;;;;;;;;;;;;;;;
2023/02/24 09:43:55;;;;;;;8.30;6.50;;;;;;;10.97;61.51;97894.81;235403;1193;138802;-67
2023/02/24 09:50:01;;;;;;;;;;;;;;;;;;;;;
2023/02/24 10:02:18;;;;;;;11.00;7.20;;;;;;;11.06;61.60;97872.91;235270;1193;141590;-68
2023/02/24 10:08:07;;;;;;;10.20;7.30;;;;;;;11.10;61.59;97869.42;235395;1195;139283;-68
2023/02/24 10:14:18;;;;;;;13.30;8.60;;;;;;;11.08;61.35;97869.05;235352;1193;139301;-68
2023/02/24 10:19:34;;;;;;;13.90;8.20;;;;;;;11.11;61.48;97869.88;235347;1192;139208;-64
2023/02/24 10:25:27;;;;;;;12.10;8.60;;;;;;;11.10;62.02;97865.16;235214;1195;139420;-65
2023/02/24 10:38:14;;;;;;;15.30;10.20;;;;;;;11.07;62.27;97851.95;235184;1195;140626;-65
2023/02/24 10:44:15;;;;;;;;;;;;;;;;;;;;;
2023/02/24 10:49:49;;;;;;;21.80;12.20;;;;;;;11.08;62.66;97823.79;235294;1193;139857;-66
2023/02/24 10:55:17;;;;;;;;;;;;;;;;;;;;;
2023/02/24 11:19:05;;;;;;;21.10;13.80;;;;;;;11.34;61.76;97764.80;235120;1197;138843;-66
2023/02/24 11:25:31;;;;;;;68.70;45.50;;;;;;;11.36;61.78;97753.92;235213;1193;138696;-65
2023/02/24 11:31:41;;;;;;;23.20;13.60;;;;;;;11.46;62.25;97739.79;235220;1193;139448;-67
2023/02/24 11:38:07;;;;;;;;;;;;;;;;;;;;;
2023/02/24 11:44:17;;;;;;;;;;;;;;;;;;;;;
2023/02/24 11:49:54;;;;;;;;;;;;;;;;;;;;;
2023/02/24 11:55:35;;;;;;;22.30;14.40;;;;;;;12.25;60.91;97692.80;235207;1193;138567;-65
2023/02/24 12:01:59;;;;;;;19.30;13.90;;;;;;;12.38;60.77;97674.25;235194;1193;139328;-67
2023/02/24 13:02:50;;;;;;;14.70;10.10;;;;;;;12.70;58.01;97610.46;232713;1209;635483;-67
2023/02/24 13:09:00;;;;;;;16.90;9.50;;;;;;;12.56;57.71;97602.81;234765;1199;138405;-66
2023/02/24 13:21:01;;;;;;;14.80;10.00;;;;;;;12.36;59.36;97603.93;235168;1195;138558;-66
2023/02/24 13:26:32;;;;;;;15.70;10.00;;;;;;;12.17;61.55;97608.70;235393;1195;138423;-66
2023/02/24 13:31:48;;;;;;;17.00;10.50;;;;;;;12.00;62.35;97594.14;235327;1195;139218;-64
2023/02/24 13:38:42;;;;;;;17.90;10.80;;;;;;;11.99;63.02;97593.16;235169;1195;139508;-68
2023/02/24 13:43:58;;;;;;;15.00;9.30;;;;;;;12.20;63.52;97584.09;235023;1195;138525;-64
2023/02/24 13:50:36;;;;;;;16.50;11.10;;;;;;;12.62;62.91;97576.84;234999;1195;138394;-69
2023/02/24 13:56:07;;;;;;;17.40;11.50;;;;;;;12.54;61.67;97555.85;234881;1195;139236;-67
2023/02/24 14:02:42;;;;;;;14.80;10.90;;;;;;;12.43;61.08;97560.10;234982;1195;140854;-65
2023/02/24 14:08:36;;;;;;;17.70;10.90;;;;;;;12.30;61.34;97556.45;234957;1195;139747;-67
2023/02/24 14:15:01;;;;;;;17.50;11.70;;;;;;;12.22;61.01;97547.17;234887;1196;139717;-66
2023/02/24 14:20:27;;;;;;;15.80;11.20;;;;;;;12.17;61.12;97541.06;235012;1195;141520;-70
2023/02/24 14:26:11;;;;;;;18.10;10.70;;;;;;;12.13;61.22;97537.49;235189;1195;139277;-67
2023/02/24 14:31:30;;;;;;;16.50;11.30;;;;;;;12.15;61.16;97533.92;235277;1196;138472;-68
2023/02/24 14:45:32;;;;;;;;;;;;;;;;;;;;;
2023/02/24 14:51:49;;;;;;;15.80;9.80;;;;;;;12.14;60.03;97484.92;235199;1193;139933;-70
2023/02/24 14:57:12;;;;;;;;;;;;;;;12.20;59.93;97476.33;235296;1195;138246;-68
2023/02/24 15:02:27;;;;;;;16.30;8.80;;;;;;;12.24;58.99;97464.80;235152;1195;124987;-65
2023/02/24 15:08:33;;;;;;;;;;;;;;;;;;;;;
2023/02/24 15:14:50;;;;;;;16.50;9.40;;;;;;;12.25;58.31;97463.97;235070;1196;138524;-66
2023/02/24 15:21:07;;;;;;;16.10;9.30;;;;;;;12.24;58.19;97451.23;235201;1193;138806;-67
2023/02/24 15:27:34;;;;;;;13.40;9.40;;;;;;;12.25;58.22;97449.39;235128;1195;138128;-67
2023/02/24 15:33:40;;;;;;;15.30;8.90;;;;;;;12.20;57.97;97454.88;235165;1193;138354;-66
2023/02/24 15:39:01;;;;;;;11.60;9.10;;;;;;;12.09;59.13;97471.04;235331;1194;138350;-67
2023/02/24 15:45:25;;;;;;;;;;;;;;;;;;;;;
2023/02/24 15:51:51;;;;;;;16.10;11.60;;;;;;;11.54;63.14;97474.42;235224;1194;138983;-65
2023/02/24 16:03:32;;;;;;;;;;;;;;;;;;;;;
2023/02/24 16:09:54;;;;;;;16.30;9.90;;;;;;;11.34;64.33;97453.68;235399;1195;138894;-65
2023/02/24 16:16:28;;;;;;;12.70;8.00;;;;;;;11.28;64.20;97436.29;235299;1195;138329;-65
2023/02/24 16:22:48;;;;;;;;;;;;;;;;;;;;;
2023/02/24 16:28:54;;;;;;;11.70;7.00;;;;;;;11.05;63.98;97417.06;235147;1195;138486;-68
2023/02/24 16:35:02;;;;;;;10.20;7.10;;;;;;;10.90;64.11;97421.98;235167;1193;139295;-66
2023/02/24 16:41:20;;;;;;;;;;;;;;;;;;;;;
2023/02/24 16:47:45;;;;;;;;;;;;;;;;;;;;;
2023/02/24 16:53:42;;;;;;;13.20;8.90;;;;;;;10.70;65.44;97401.59;235006;1197;139042;-68
2023/02/24 16:58:53;;;;;;;12.60;9.20;;;;;;;10.74;65.59;97406.39;234966;1196;138791;-67
2023/02/24 17:04:48;;;;;;;14.80;9.10;;;;;;;10.76;65.54;97399.45;235145;1193;138928;-66
2023/02/24 17:10:25;;;;;;;;;;;;;;;;;;;;;
2023/02/24 17:15:39;;;;;;;18.00;10.40;;;;;;;10.74;65.87;97387.95;235075;1196;138500;-64
2023/02/24 17:21:09;;;;;;;;;;;;;;;;;;;;;
2023/02/24 17:27:10;;;;;;;;;;;;;;;;;;;;;
2023/02/24 17:33:04;;;;;;;15.10;10.30;;;;;;;10.68;66.44;97375.70;234856;1196;140182;-65
2023/02/24 17:38:42;;;;;;;16.70;11.00;;;;;;;10.63;66.85;97366.92;235087;1195;139111;-64
2023/02/24 17:44:47;;;;;;;;;;;;;;;;;;;;;
2023/02/24 17:50:12;;;;;;;19.30;11.30;;;;;;;10.68;67.09;97349.25;234896;1199;140253;-63
2023/02/24 17:55:30;;;;;;;14.90;9.80;;;;;;;10.79;66.14;97342.77;235257;1196;139680;-66
2023/02/24 18:00:33;;;;;;;16.80;10.60;;;;;;;10.84;66.14;97339.99;235127;1195;139548;-64
2023/02/24 18:06:20;;;;;;;15.90;10.90;;;;;;;10.79;66.36;97328.59;235168;1193;139100;-66
2023/02/24 18:11:36;;;;;;;17.30;11.40;;;;;;;10.71;65.77;97318.72;235159;1193;138820;-64
2023/02/24 18:16:40;;;;;;;19.50;11.00;;;;;;;10.65;66.01;97313.14;235229;1196;139105;-64
2023/02/24 18:22:28;;;;;;;;;;;;;;;;;;;;;
2023/02/24 18:28:10;;;;;;;16.40;10.30;;;;;;;10.61;66.51;97299.02;235198;1194;139384;-64
2023/02/24 18:34:04;;;;;;;16.40;11.00;;;;;;;10.55;66.33;97295.66;235278;1193;139018;-65
2023/02/24 18:39:58;;;;;;;;;;;;;;;;;;;;;
2023/02/24 18:45:32;;;;;;;15.00;9.30;;;;;;;10.49;65.85;97289.27;235131;1193;138609;-64
2023/02/24 18:50:58;;;;;;;18.90;10.90;;;;;;;10.50;65.68;97282.09;235152;1193;139631;-67
2023/02/24 18:56:48;;;;;;;;;;;;;;;;;;;;;
2023/02/24 19:02:46;;;;;;;17.70;11.00;;;;;;;10.61;65.15;97279.85;235188;1195;139460;-64
2023/02/24 19:13:58;;;;;;;17.70;11.20;;;;;;;10.75;64.54;97258.90;230353;1212;636187;-65
2023/02/24 19:19:21;;;;;;;19.50;11.50;;;;;;;10.64;64.37;97260.75;235704;1192;138143;-66
2023/02/24 19:24:44;;;;;;;19.30;13.00;;;;;;;10.47;64.67;97265.67;235762;1193;138633;-66
2023/02/24 19:30:55;;;;;;;17.70;13.00;;;;;;;10.40;65.01;97258.33;235743;1192;138902;-67
2023/02/24 19:36:59;;;;;;;20.90;13.00;;;;;;;10.29;65.31;97239.11;235753;1192;138227;-66
2023/02/24 19:42:50;;;;;;;19.70;13.00;;;;;;;10.12;65.87;97226.06;235711;1192;138033;-65
2023/02/24 19:48:10;;;;;;;;;;;;;;;;;;;;;
2023/02/24 19:54:17;;;;;;;19.60;12.90;;;;;;;9.96;66.57;97209.27;235800;1192;139376;-66
2023/02/24 20:02:43;;;;;;;;;;;;;;;;;;;;;
2023/02/24 20:07:59;;;;;;;19.60;14.10;;;;;;;10.01;67.17;97183.83;235494;1193;138871;-65
2023/02/24 20:13:04;;;;;;;115.80;81.30;;;;;;;9.98;67.59;97177.89;235548;1193;138703;-66
2023/02/24 20:18:10;;;;;;;20.30;15.30;;;;;;;10.04;67.70;97162.09;235513;1193;138391;-67
2023/02/24 20:23:45;;;;;;;19.80;14.00;;;;;;;10.03;67.42;97159.16;235597;1192;138946;-66
2023/02/24 20:29:31;;;;;;;21.80;14.20;;;;;;;9.93;67.65;97147.67;235784;1193;138731;-66
2023/02/24 20:35:04;;;;;;;20.20;14.70;;;;;;;9.81;68.01;97136.19;235673;1193;138686;-66
2023/02/24 20:41:20;;;;;;;;;;;;;;;;;;;;;
2023/02/24 20:46:36;;;;;;;20.20;14.50;;;;;;;9.67;68.10;97117.27;235810;1192;139033;-70
2023/02/24 20:51:43;;;;;;;29.50;17.30;;;;;;;9.66;68.16;97107.09;235654;1193;139215;-66
2023/02/24 20:57:49;;;;;;;28.00;18.90;;;;;;;9.63;67.90;97083.42;235788;1192;139183;-67
2023/02/24 21:03:54;;;;;;;;;;;;;;;;;;;;;
2023/02/24 21:09:40;;;;;;;34.70;21.50;;;;;;;9.56;67.99;97063.55;235351;1195;138656;-65
2023/02/24 21:14:45;;;;;;;29.10;19.60;;;;;;;9.45;67.70;97072.13;235576;1192;138886;-67
2023/02/24 21:21:13;;;;;;;31.80;20.60;;;;;;;9.32;67.80;97059.02;235380;1194;139030;-68
2023/02/24 21:26:55;;;;;;;30.80;19.90;;;;;;;9.18;68.16;97051.87;235328;1192;138869;-67
2023/02/24 21:32:21;;;;;;;117.50;80.90;;;;;;;9.18;68.86;97038.60;235603;1193;139781;-64
2023/02/24 21:38:40;;;;;;;21.90;13.30;;;;;;;9.39;69.33;97026.88;235596;1192;140255;-68
2023/02/24 21:45:01;;;;;;;19.60;11.50;;;;;;;9.69;67.99;97011.20;235411;1193;139451;-66
2023/02/24 21:49:45;;;;;;;;;;;;;;;;;;;;;
2023/02/24 21:55:26;;;;;;;16.90;10.90;;;;;;;10.03;65.24;96978.00;235657;1192;138590;-68
2023/02/24 22:00:42;;;;;;;15.70;10.10;;;;;;;10.08;64.88;96967.42;235713;1192;139385;-67
2023/02/24 23:06:56;;;;;;;;;;;;;;;;;;;;;
2023/02/24 23:13:26;;;;;;;;;;;;;;;;;;;;;
2023/02/24 23:19:34;;;;;;;9.50;4.90;;;;;;;10.07;63.03;96906.05;235186;1195;138513;-67
2023/02/24 23:25:51;;;;;;;14.00;6.10;;;;;;;10.04;62.99;96890.95;235132;1195;139001;-66
2023/02/24 23:31:18;;;;;;;10.10;5.20;;;;;;;9.99;63.10;96886.30;235174;1196;138425;-68
2023/02/24 23:37:24;;;;;;;9.70;5.10;;;;;;;10.02;63.42;96882.80;235389;1196;138991;-68
2023/02/24 23:43:14;;;;;;;12.00;5.00;;;;;;;10.09;63.51;96892.91;235600;1193;138061;-67
2023/02/24 23:49:13;;;;;;;;;;;;;;;;;;;;;
2023/02/24 23:55:35;;;;;;;;;;;;;;;;;;;;;
